KMTN/MTN METAR and TAF weather

Enter ICAO airport designator
Station Type Date Time Source
KMTN METAR 2022/06/30 11:58 UTC NOAA

KMTN 301158Z 00000KT 10SM CLR 23/20 A3024


Station Type Date Time Source
KMTN Decoded METAR 2022/06/30 11:58 UTC NOAA

Baltimore / Martin, MD, United States (KMTN) 39-20N 076-25W
Jun 30, 2022 - 07:58 AM EDT / 2022.06.30 1158 UTC
Wind: Calm:0
Visibility: 10 mile(s):0
Sky conditions: clear
Temperature: 73 F (23 C)
Dew Point: 68 F (20 C)
Relative Humidity: 83%
Pressure (altimeter): 30.24 in. Hg (1024 hPa)
ob: KMTN 301158Z 00000KT 10SM CLR 23/20 A3024
cycle: 12

Station Type Date Time Source
KMTN TAF 2022/06/30 12:39 UTC NOAA

TAF KMTN 301137Z 3012/0112 VRB03KT P6SM SKC
FM301700 13004KT P6SM SKC

Example: see airport list